sensor_id;sensor_type;location;lat;lon;timestamp;temperature;humidity
70456;DHT22;57916;51.996;5.180;2022-09-06T00:00:12;24.60;55.90
70456;DHT22;57916;51.996;5.180;2022-09-06T00:02:40;24.60;55.90
70456;DHT22;57916;51.996;5.180;2022-09-06T00:05:09;24.60;55.90
70456;DHT22;57916;51.996;5.180;2022-09-06T00:07:37;24.60;55.90
70456;DHT22;57916;51.996;5.180;2022-09-06T00:10:04;24.50;56.40
70456;DHT22;57916;51.996;5.180;2022-09-06T00:12:35;24.40;56.70
70456;DHT22;57916;51.996;5.180;2022-09-06T00:15:04;24.30;57.30
70456;DHT22;57916;51.996;5.180;2022-09-06T00:17:32;24.20;57.90
70456;DHT22;57916;51.996;5.180;2022-09-06T00:19:59;24.20;57.70
70456;DHT22;57916;51.996;5.180;2022-09-06T00:22:26;24.10;58.00
70456;DHT22;57916;51.996;5.180;2022-09-06T00:24:53;24.10;57.90
70456;DHT22;57916;51.996;5.180;2022-09-06T00:27:20;24.00;58.10
70456;DHT22;57916;51.996;5.180;2022-09-06T00:29:47;24.00;57.90
70456;DHT22;57916;51.996;5.180;2022-09-06T00:32:14;24.00;58.10
70456;DHT22;57916;51.996;5.180;2022-09-06T00:34:40;24.10;58.60
70456;DHT22;57916;51.996;5.180;2022-09-06T00:37:07;24.10;58.00
70456;DHT22;57916;51.996;5.180;2022-09-06T00:39:34;24.10;58.10
70456;DHT22;57916;51.996;5.180;2022-09-06T00:42:01;24.00;58.40
70456;DHT22;57916;51.996;5.180;2022-09-06T00:44:28;23.90;58.60
70456;DHT22;57916;51.996;5.180;2022-09-06T00:46:55;23.90;58.90
70456;DHT22;57916;51.996;5.180;2022-09-06T00:49:28;23.90;59.00
70456;DHT22;57916;51.996;5.180;2022-09-06T00:52:00;23.90;58.80
70456;DHT22;57916;51.996;5.180;2022-09-06T00:54:29;24.00;58.60
70456;DHT22;57916;51.996;5.180;2022-09-06T00:56:57;23.90;58.50
70456;DHT22;57916;51.996;5.180;2022-09-06T00:59:30;24.00;58.40
70456;DHT22;57916;51.996;5.180;2022-09-06T01:01:57;24.00;58.80
70456;DHT22;57916;51.996;5.180;2022-09-06T01:04:25;24.00;58.70
70456;DHT22;57916;51.996;5.180;2022-09-06T01:29:27;24.30;60.30
70456;DHT22;57916;51.996;5.180;2022-09-06T01:32:08;24.20;60.00
70456;DHT22;57916;51.996;5.180;2022-09-06T01:34:44;24.20;60.00
70456;DHT22;57916;51.996;5.180;2022-09-06T01:37:15;24.00;60.20
70456;DHT22;57916;51.996;5.180;2022-09-06T01:39:43;23.90;60.40
70456;DHT22;57916;51.996;5.180;2022-09-06T01:42:23;23.80;61.70
70456;DHT22;57916;51.996;5.180;2022-09-06T01:44:55;23.90;62.50
70456;DHT22;57916;51.996;5.180;2022-09-06T01:47:43;24.00;62.10
70456;DHT22;57916;51.996;5.180;2022-09-06T01:50:46;24.00;61.70
70456;DHT22;57916;51.996;5.180;2022-09-06T02:02:08;23.50;61.10
70456;DHT22;57916;51.996;5.180;2022-09-06T02:04:44;23.20;61.80
70456;DHT22;57916;51.996;5.180;2022-09-06T02:07:19;22.90;62.30
70456;DHT22;57916;51.996;5.180;2022-09-06T02:12:59;22.60;63.50
70456;DHT22;57916;51.996;5.180;2022-09-06T02:15:33;22.50;64.00
70456;DHT22;57916;51.996;5.180;2022-09-06T02:18:10;22.30;64.40
70456;DHT22;57916;51.996;5.180;2022-09-06T02:20:41;22.30;64.70
70456;DHT22;57916;51.996;5.180;2022-09-06T02:23:11;22.20;65.00
70456;DHT22;57916;51.996;5.180;2022-09-06T02:25:43;22.20;65.10
70456;DHT22;57916;51.996;5.180;2022-09-06T02:28:14;22.20;65.40
70456;DHT22;57916;51.996;5.180;2022-09-06T02:30:51;22.10;65.50
70456;DHT22;57916;51.996;5.180;2022-09-06T02:33:24;22.20;65.30
70456;DHT22;57916;51.996;5.180;2022-09-06T02:35:53;22.20;65.30
70456;DHT22;57916;51.996;5.180;2022-09-06T02:38:23;22.30;65.20
70456;DHT22;57916;51.996;5.180;2022-09-06T02:40:52;22.30;65.10
70456;DHT22;57916;51.996;5.180;2022-09-06T02:43:19;22.40;64.90
70456;DHT22;57916;51.996;5.180;2022-09-06T02:45:47;22.40;64.70
70456;DHT22;57916;51.996;5.180;2022-09-06T02:48:14;22.50;64.60
70456;DHT22;57916;51.996;5.180;2022-09-06T02:50:41;22.50;64.30
70456;DHT22;57916;51.996;5.180;2022-09-06T02:53:10;22.60;64.10
70456;DHT22;57916;51.996;5.180;2022-09-06T02:55:37;22.70;63.90
70456;DHT22;57916;51.996;5.180;2022-09-06T02:58:08;22.80;63.80
70456;DHT22;57916;51.996;5.180;2022-09-06T03:00:35;22.90;64.50
70456;DHT22;57916;51.996;5.180;2022-09-06T03:03:03;23.00;63.50
70456;DHT22;57916;51.996;5.180;2022-09-06T03:05:30;23.10;63.50
70456;DHT22;57916;51.996;5.180;2022-09-06T03:07:57;23.20;63.00
70456;DHT22;57916;51.996;5.180;2022-09-06T03:10:24;23.10;62.80
70456;DHT22;57916;51.996;5.180;2022-09-06T03:12:52;23.10;62.60
70456;DHT22;57916;51.996;5.180;2022-09-06T03:15:19;23.10;63.40
70456;DHT22;57916;51.996;5.180;2022-09-06T03:17:46;23.20;62.20
70456;DHT22;57916;51.996;5.180;2022-09-06T03:20:13;23.10;62.00
70456;DHT22;57916;51.996;5.180;2022-09-06T03:22:40;23.10;62.00
70456;DHT22;57916;51.996;5.180;2022-09-06T03:25:08;23.10;62.10
70456;DHT22;57916;51.996;5.180;2022-09-06T03:27:36;23.10;61.90
70456;DHT22;57916;51.996;5.180;2022-09-06T03:30:04;23.10;62.80
70456;DHT22;57916;51.996;5.180;2022-09-06T03:32:31;23.20;61.50
70456;DHT22;57916;51.996;5.180;2022-09-06T03:34:58;23.20;61.30
70456;DHT22;57916;51.996;5.180;2022-09-06T03:37:25;23.20;61.20
70456;DHT22;57916;51.996;5.180;2022-09-06T03:39:52;23.20;61.00
70456;DHT22;57916;51.996;5.180;2022-09-06T03:42:19;23.10;60.90
70456;DHT22;57916;51.996;5.180;2022-09-06T03:44:47;23.10;61.10
70456;DHT22;57916;51.996;5.180;2022-09-06T03:47:14;23.10;61.30
70456;DHT22;57916;51.996;5.180;2022-09-06T03:49:45;23.10;61.40
70456;DHT22;57916;51.996;5.180;2022-09-06T03:52:12;23.10;61.40
70456;DHT22;57916;51.996;5.180;2022-09-06T03:54:39;23.10;61.30
70456;DHT22;57916;51.996;5.180;2022-09-06T03:57:06;23.10;61.30
70456;DHT22;57916;51.996;5.180;2022-09-06T03:59:33;23.10;61.10
70456;DHT22;57916;51.996;5.180;2022-09-06T04:02:00;23.00;61.10
70456;DHT22;57916;51.996;5.180;2022-09-06T04:04:28;23.00;61.20
70456;DHT22;57916;51.996;5.180;2022-09-06T04:06:54;23.00;61.30
70456;DHT22;57916;51.996;5.180;2022-09-06T04:09:21;23.00;61.30
70456;DHT22;57916;51.996;5.180;2022-09-06T04:11:49;23.00;61.40
70456;DHT22;57916;51.996;5.180;2022-09-06T04:14:15;23.00;61.50
70456;DHT22;57916;51.996;5.180;2022-09-06T04:16:42;23.00;61.50
70456;DHT22;57916;51.996;5.180;2022-09-06T04:19:10;23.00;62.30
70456;DHT22;57916;51.996;5.180;2022-09-06T04:21:36;23.00;61.50
70456;DHT22;57916;51.996;5.180;2022-09-06T04:24:04;23.00;61.50
70456;DHT22;57916;51.996;5.180;2022-09-06T04:26:31;23.00;61.50
70456;DHT22;57916;51.996;5.180;2022-09-06T04:28:58;23.00;61.80
70456;DHT22;57916;51.996;5.180;2022-09-06T04:31:25;23.00;61.60
70456;DHT22;57916;51.996;5.180;2022-09-06T04:33:52;23.00;61.60
70456;DHT22;57916;51.996;5.180;2022-09-06T04:36:19;22.90;61.50
70456;DHT22;57916;51.996;5.180;2022-09-06T04:38:46;22.90;61.30
70456;DHT22;57916;51.996;5.180;2022-09-06T04:41:14;22.90;61.50
70456;DHT22;57916;51.996;5.180;2022-09-06T04:43:42;22.90;61.60
70456;DHT22;57916;51.996;5.180;2022-09-06T04:46:26;22.90;61.70
70456;DHT22;57916;51.996;5.180;2022-09-06T04:48:54;22.90;61.80
70456;DHT22;57916;51.996;5.180;2022-09-06T04:51:23;22.80;61.70
70456;DHT22;57916;51.996;5.180;2022-09-06T04:53:50;22.70;61.80
70456;DHT22;57916;51.996;5.180;2022-09-06T04:56:19;22.70;61.80
70456;DHT22;57916;51.996;5.180;2022-09-06T04:58:50;22.70;61.70
70456;DHT22;57916;51.996;5.180;2022-09-06T05:01:17;22.70;62.00
70456;DHT22;57916;51.996;5.180;2022-09-06T05:03:45;22.70;62.30
70456;DHT22;57916;51.996;5.180;2022-09-06T05:06:18;22.70;62.40
70456;DHT22;57916;51.996;5.180;2022-09-06T05:08:46;22.70;62.10
70456;DHT22;57916;51.996;5.180;2022-09-06T05:11:13;22.70;61.90
70456;DHT22;57916;51.996;5.180;2022-09-06T05:13:41;22.70;63.30
70456;DHT22;57916;51.996;5.180;2022-09-06T05:16:08;22.70;62.40
70456;DHT22;57916;51.996;5.180;2022-09-06T05:18:35;22.70;62.30
70456;DHT22;57916;51.996;5.180;2022-09-06T05:21:04;22.70;62.50
70456;DHT22;57916;51.996;5.180;2022-09-06T05:23:31;22.70;62.70
70456;DHT22;57916;51.996;5.180;2022-09-06T05:25:58;22.70;62.70
70456;DHT22;57916;51.996;5.180;2022-09-06T05:28:25;22.70;62.80
70456;DHT22;57916;51.996;5.180;2022-09-06T05:30:52;22.70;62.80
70456;DHT22;57916;51.996;5.180;2022-09-06T05:33:21;22.80;62.80
70456;DHT22;57916;51.996;5.180;2022-09-06T05:35:48;22.80;63.30
70456;DHT22;57916;51.996;5.180;2022-09-06T05:38:15;22.80;62.50
70456;DHT22;57916;51.996;5.180;2022-09-06T05:40:42;22.80;62.60
70456;DHT22;57916;51.996;5.180;2022-09-06T05:43:09;22.90;62.50
70456;DHT22;57916;51.996;5.180;2022-09-06T05:45:36;23.20;62.40
70456;DHT22;57916;51.996;5.180;2022-09-06T05:48:03;23.40;61.60
70456;DHT22;57916;51.996;5.180;2022-09-06T05:50:30;23.70;60.90
70456;DHT22;57916;51.996;5.180;2022-09-06T05:52:57;24.00;59.90
70456;DHT22;57916;51.996;5.180;2022-09-06T05:55:24;24.20;59.00
70456;DHT22;57916;51.996;5.180;2022-09-06T05:57:51;24.30;58.10
70456;DHT22;57916;51.996;5.180;2022-09-06T06:00:18;24.40;58.20
70456;DHT22;57916;51.996;5.180;2022-09-06T06:02:48;24.40;58.00
70456;DHT22;57916;51.996;5.180;2022-09-06T06:05:16;24.40;58.00
70456;DHT22;57916;51.996;5.180;2022-09-06T06:07:42;24.60;58.40
70456;DHT22;57916;51.996;5.180;2022-09-06T06:10:10;24.80;58.00
70456;DHT22;57916;51.996;5.180;2022-09-06T06:12:36;25.10;57.10
70456;DHT22;57916;51.996;5.180;2022-09-06T06:15:04;25.40;56.30
70456;DHT22;57916;51.996;5.180;2022-09-06T06:17:31;25.60;55.30
70456;DHT22;57916;51.996;5.180;2022-09-06T06:19:58;25.90;54.90
70456;DHT22;57916;51.996;5.180;2022-09-06T06:22:26;26.20;54.00
70456;DHT22;57916;51.996;5.180;2022-09-06T06:24:52;26.60;53.20
70456;DHT22;57916;51.996;5.180;2022-09-06T06:27:19;26.90;51.90
70456;DHT22;57916;51.996;5.180;2022-09-06T06:29:46;27.20;50.90
70456;DHT22;57916;51.996;5.180;2022-09-06T06:32:13;27.50;50.20
70456;DHT22;57916;51.996;5.180;2022-09-06T06:34:40;27.60;49.90
70456;DHT22;57916;51.996;5.180;2022-09-06T06:37:07;27.70;49.70
70456;DHT22;57916;51.996;5.180;2022-09-06T06:39:34;27.80;49.00
70456;DHT22;57916;51.996;5.180;2022-09-06T06:42:01;27.80;49.50
70456;DHT22;57916;51.996;5.180;2022-09-06T06:44:39;28.00;48.90
70456;DHT22;57916;51.996;5.180;2022-09-06T06:47:06;28.20;48.90
70456;DHT22;57916;51.996;5.180;2022-09-06T06:49:33;28.40;48.00
70456;DHT22;57916;51.996;5.180;2022-09-06T06:52:00;28.60;48.60
70456;DHT22;57916;51.996;5.180;2022-09-06T06:54:27;28.70;47.40
70456;DHT22;57916;51.996;5.180;2022-09-06T06:56:55;29.00;46.90
70456;DHT22;57916;51.996;5.180;2022-09-06T06:59:22;29.30;46.20
70456;DHT22;57916;51.996;5.180;2022-09-06T07:01:49;29.50;45.30
70456;DHT22;57916;51.996;5.180;2022-09-06T07:04:16;29.70;44.80
70456;DHT22;57916;51.996;5.180;2022-09-06T07:06:49;29.80;44.60
70456;DHT22;57916;51.996;5.180;2022-09-06T07:09:36;30.00;44.50
70456;DHT22;57916;51.996;5.180;2022-09-06T07:12:23;30.20;44.00
70456;DHT22;57916;51.996;5.180;2022-09-06T07:14:50;30.30;43.40
70456;DHT22;57916;51.996;5.180;2022-09-06T07:17:17;30.30;43.20
70456;DHT22;57916;51.996;5.180;2022-09-06T07:19:44;30.30;43.20
70456;DHT22;57916;51.996;5.180;2022-09-06T07:22:31;30.30;43.10
70456;DHT22;57916;51.996;5.180;2022-09-06T07:24:58;30.50;43.10
70456;DHT22;57916;51.996;5.180;2022-09-06T07:27:24;30.70;42.70
70456;DHT22;57916;51.996;5.180;2022-09-06T07:30:12;30.90;42.20
70456;DHT22;57916;51.996;5.180;2022-09-06T07:32:40;31.00;42.00
70456;DHT22;57916;51.996;5.180;2022-09-06T07:35:07;31.00;41.50
70456;DHT22;57916;51.996;5.180;2022-09-06T07:37:34;31.00;41.60
70456;DHT22;57916;51.996;5.180;2022-09-06T07:40:02;31.00;41.50
70456;DHT22;57916;51.996;5.180;2022-09-06T07:42:30;30.90;41.10
70456;DHT22;57916;51.996;5.180;2022-09-06T07:45:03;30.80;41.70
70456;DHT22;57916;51.996;5.180;2022-09-06T07:47:30;30.90;42.00
70456;DHT22;57916;51.996;5.180;2022-09-06T07:50:17;31.00;41.40
70456;DHT22;57916;51.996;5.180;2022-09-06T07:53:07;31.10;41.10
70456;DHT22;57916;51.996;5.180;2022-09-06T07:55:41;31.20;41.00
70456;DHT22;57916;51.996;5.180;2022-09-06T07:58:08;31.20;41.00
70456;DHT22;57916;51.996;5.180;2022-09-06T08:00:35;31.20;40.70
70456;DHT22;57916;51.996;5.180;2022-09-06T08:03:04;31.20;40.90
70456;DHT22;57916;51.996;5.180;2022-09-06T08:05:31;31.20;40.90
70456;DHT22;57916;51.996;5.180;2022-09-06T08:08:18;31.20;41.10
70456;DHT22;57916;51.996;5.180;2022-09-06T08:11:05;31.30;41.20
70456;DHT22;57916;51.996;5.180;2022-09-06T08:13:35;31.40;40.90
70456;DHT22;57916;51.996;5.180;2022-09-06T08:16:07;31.70;40.80
70456;DHT22;57916;51.996;5.180;2022-09-06T08:18:35;31.80;39.20
70456;DHT22;57916;51.996;5.180;2022-09-06T08:21:07;31.80;39.40
70456;DHT22;57916;51.996;5.180;2022-09-06T08:23:39;31.80;39.20
70456;DHT22;57916;51.996;5.180;2022-09-06T08:26:10;31.80;40.00
70456;DHT22;57916;51.996;5.180;2022-09-06T08:28:37;31.90;39.60
70456;DHT22;57916;51.996;5.180;2022-09-06T08:31:15;32.00;38.90
70456;DHT22;57916;51.996;5.180;2022-09-06T08:33:43;32.20;39.30
70456;DHT22;57916;51.996;5.180;2022-09-06T08:36:10;32.30;39.10
70456;DHT22;57916;51.996;5.180;2022-09-06T08:38:37;32.50;37.70
70456;DHT22;57916;51.996;5.180;2022-09-06T08:43:36;32.50;36.80
70456;DHT22;57916;51.996;5.180;2022-09-06T08:46:05;32.40;36.50
70456;DHT22;57916;51.996;5.180;2022-09-06T08:48:35;32.10;37.20
70456;DHT22;57916;51.996;5.180;2022-09-06T08:51:12;31.80;37.20
70456;DHT22;57916;51.996;5.180;2022-09-06T08:53:46;31.50;38.10
70456;DHT22;57916;51.996;5.180;2022-09-06T08:56:24;31.30;38.60
70456;DHT22;57916;51.996;5.180;2022-09-06T08:59:05;31.40;38.90
70456;DHT22;57916;51.996;5.180;2022-09-06T09:01:58;31.70;38.90
70456;DHT22;57916;51.996;5.180;2022-09-06T09:04:29;32.00;38.30
70456;DHT22;57916;51.996;5.180;2022-09-06T09:07:04;32.30;38.10
70456;DHT22;57916;51.996;5.180;2022-09-06T09:09:33;32.60;37.30
70456;DHT22;57916;51.996;5.180;2022-09-06T09:12:01;32.80;36.60
70456;DHT22;57916;51.996;5.180;2022-09-06T09:14:29;32.90;36.30
70456;DHT22;57916;51.996;5.180;2022-09-06T09:17:05;33.00;36.50
70456;DHT22;57916;51.996;5.180;2022-09-06T09:19:33;33.20;36.00
70456;DHT22;57916;51.996;5.180;2022-09-06T09:22:03;33.30;35.60
70456;DHT22;57916;51.996;5.180;2022-09-06T09:24:30;33.40;36.00
70456;DHT22;57916;51.996;5.180;2022-09-06T09:27:10;33.60;36.10
70456;DHT22;57916;51.996;5.180;2022-09-06T09:32:44;33.90;35.10
70456;DHT22;57916;51.996;5.180;2022-09-06T09:38:08;34.30;35.10
70456;DHT22;57916;51.996;5.180;2022-09-06T09:40:41;34.50;34.20
70456;DHT22;57916;51.996;5.180;2022-09-06T09:43:15;34.50;33.90
70456;DHT22;57916;51.996;5.180;2022-09-06T09:45:44;34.70;33.80
70456;DHT22;57916;51.996;5.180;2022-09-06T09:48:23;34.80;33.40
70456;DHT22;57916;51.996;5.180;2022-09-06T09:50:53;35.10;33.70
70456;DHT22;57916;51.996;5.180;2022-09-06T09:53:22;35.30;32.80
70456;DHT22;57916;51.996;5.180;2022-09-06T09:55:56;35.50;33.00
70456;DHT22;57916;51.996;5.180;2022-09-06T09:58:32;35.70;31.80
70456;DHT22;57916;51.996;5.180;2022-09-06T10:03:40;35.90;31.30
70456;DHT22;57916;51.996;5.180;2022-09-06T10:06:27;35.70;31.80
70456;DHT22;57916;51.996;5.180;2022-09-06T10:09:29;35.50;32.00
70456;DHT22;57916;51.996;5.180;2022-09-06T10:11:58;35.30;32.70
70456;DHT22;57916;51.996;5.180;2022-09-06T10:16:54;35.30;33.10
70456;DHT22;57916;51.996;5.180;2022-09-06T10:19:40;35.50;33.30
70456;DHT22;57916;51.996;5.180;2022-09-06T10:22:49;35.70;32.90
70456;DHT22;57916;51.996;5.180;2022-09-06T10:25:51;35.90;32.60
70456;DHT22;57916;51.996;5.180;2022-09-06T10:28:33;35.90;31.80
70456;DHT22;57916;51.996;5.180;2022-09-06T10:39:48;35.70;31.90
70456;DHT22;57916;51.996;5.180;2022-09-06T10:45:32;35.80;31.70
70456;DHT22;57916;51.996;5.180;2022-09-06T10:48:23;35.70;31.90
70456;DHT22;57916;51.996;5.180;2022-09-06T10:50:57;35.60;32.30
70456;DHT22;57916;51.996;5.180;2022-09-06T10:53:39;35.50;32.50
70456;DHT22;57916;51.996;5.180;2022-09-06T10:56:17;35.30;32.70
70456;DHT22;57916;51.996;5.180;2022-09-06T10:59:26;35.40;32.60
70456;DHT22;57916;51.996;5.180;2022-09-06T11:04:44;35.50;32.70
70456;DHT22;57916;51.996;5.180;2022-09-06T11:07:35;35.50;33.10
70456;DHT22;57916;51.996;5.180;2022-09-06T11:10:09;35.60;32.90
70456;DHT22;57916;51.996;5.180;2022-09-06T11:12:55;35.60;32.10
70456;DHT22;57916;51.996;5.180;2022-09-06T11:15:25;35.40;32.50
70456;DHT22;57916;51.996;5.180;2022-09-06T11:18:06;35.30;32.50
70456;DHT22;57916;51.996;5.180;2022-09-06T11:23:35;35.30;32.70
70456;DHT22;57916;51.996;5.180;2022-09-06T11:28:52;35.30;33.30
70456;DHT22;57916;51.996;5.180;2022-09-06T11:31:28;35.30;33.70
70456;DHT22;57916;51.996;5.180;2022-09-06T11:34:34;35.30;33.40
70456;DHT22;57916;51.996;5.180;2022-09-06T11:37:03;35.50;34.50
70456;DHT22;57916;51.996;5.180;2022-09-06T11:39:37;35.60;33.50
70456;DHT22;57916;51.996;5.180;2022-09-06T11:58:41;35.40;32.40
70456;DHT22;57916;51.996;5.180;2022-09-06T12:07:06;35.10;33.60
70456;DHT22;57916;51.996;5.180;2022-09-06T12:09:38;35.00;34.00
70456;DHT22;57916;51.996;5.180;2022-09-06T12:12:08;35.10;34.40
70456;DHT22;57916;51.996;5.180;2022-09-06T12:14:43;35.20;34.20
70456;DHT22;57916;51.996;5.180;2022-09-06T12:25:03;35.60;34.10
70456;DHT22;57916;51.996;5.180;2022-09-06T12:27:32;35.60;33.60
70456;DHT22;57916;51.996;5.180;2022-09-06T12:30:07;35.60;34.00
70456;DHT22;57916;51.996;5.180;2022-09-06T12:32:44;35.60;34.50
70456;DHT22;57916;51.996;5.180;2022-09-06T12:35:24;35.50;33.60
70456;DHT22;57916;51.996;5.180;2022-09-06T12:38:13;35.50;34.50
70456;DHT22;57916;51.996;5.180;2022-09-06T12:40:46;35.50;33.70
70456;DHT22;57916;51.996;5.180;2022-09-06T12:43:15;35.60;32.90
70456;DHT22;57916;51.996;5.180;2022-09-06T12:45:44;35.60;32.30
70456;DHT22;57916;51.996;5.180;2022-09-06T12:48:29;35.50;32.50
70456;DHT22;57916;51.996;5.180;2022-09-06T12:51:20;35.40;32.60
70456;DHT22;57916;51.996;5.180;2022-09-06T12:53:52;35.30;31.90
70456;DHT22;57916;51.996;5.180;2022-09-06T12:56:21;35.20;32.40
70456;DHT22;57916;51.996;5.180;2022-09-06T12:58:49;35.00;33.30
70456;DHT22;57916;51.996;5.180;2022-09-06T13:01:24;34.90;33.10
70456;DHT22;57916;51.996;5.180;2022-09-06T13:03:57;34.80;33.50
70456;DHT22;57916;51.996;5.180;2022-09-06T13:06:26;34.60;34.50
70456;DHT22;57916;51.996;5.180;2022-09-06T13:08:55;34.40;33.30
70456;DHT22;57916;51.996;5.180;2022-09-06T13:11:32;34.30;33.20
70456;DHT22;57916;51.996;5.180;2022-09-06T13:14:00;34.10;33.20
70456;DHT22;57916;51.996;5.180;2022-09-06T13:16:36;33.90;33.40
70456;DHT22;57916;51.996;5.180;2022-09-06T13:19:27;33.80;33.00
70456;DHT22;57916;51.996;5.180;2022-09-06T13:21:56;33.50;33.00
70456;DHT22;57916;51.996;5.180;2022-09-06T13:27:22;33.30;33.40
70456;DHT22;57916;51.996;5.180;2022-09-06T13:33:02;33.10;35.20
70456;DHT22;57916;51.996;5.180;2022-09-06T13:35:33;33.00;34.60
70456;DHT22;57916;51.996;5.180;2022-09-06T13:38:41;32.90;35.30
70456;DHT22;57916;51.996;5.180;2022-09-06T13:46:26;32.70;35.40
70456;DHT22;57916;51.996;5.180;2022-09-06T13:48:54;32.60;35.20
70456;DHT22;57916;51.996;5.180;2022-09-06T13:51:22;32.60;35.20
70456;DHT22;57916;51.996;5.180;2022-09-06T13:53:49;32.50;35.40
70456;DHT22;57916;51.996;5.180;2022-09-06T13:56:16;32.30;35.50
70456;DHT22;57916;51.996;5.180;2022-09-06T13:58:43;32.30;35.90
70456;DHT22;57916;51.996;5.180;2022-09-06T14:01:11;32.20;35.40
70456;DHT22;57916;51.996;5.180;2022-09-06T14:03:40;32.20;35.60
70456;DHT22;57916;51.996;5.180;2022-09-06T14:06:09;32.10;35.60
70456;DHT22;57916;51.996;5.180;2022-09-06T14:08:36;32.00;35.90
70456;DHT22;57916;51.996;5.180;2022-09-06T14:11:24;32.00;36.20
70456;DHT22;57916;51.996;5.180;2022-09-06T14:13:51;31.90;36.20
70456;DHT22;57916;51.996;5.180;2022-09-06T14:16:18;31.90;36.20
70456;DHT22;57916;51.996;5.180;2022-09-06T14:18:46;31.90;36.30
70456;DHT22;57916;51.996;5.180;2022-09-06T14:21:13;31.90;35.70
70456;DHT22;57916;51.996;5.180;2022-09-06T14:23:40;31.90;36.00
70456;DHT22;57916;51.996;5.180;2022-09-06T14:26:06;31.90;36.10
70456;DHT22;57916;51.996;5.180;2022-09-06T14:28:33;31.90;36.00
70456;DHT22;57916;51.996;5.180;2022-09-06T14:31:24;31.90;36.20
70456;DHT22;57916;51.996;5.180;2022-09-06T14:33:53;31.90;35.40
70456;DHT22;57916;51.996;5.180;2022-09-06T14:36:22;31.90;35.90
70456;DHT22;57916;51.996;5.180;2022-09-06T14:38:50;31.80;35.90
70456;DHT22;57916;51.996;5.180;2022-09-06T14:41:18;31.80;36.90
70456;DHT22;57916;51.996;5.180;2022-09-06T14:43:50;31.80;36.20
70456;DHT22;57916;51.996;5.180;2022-09-06T14:46:19;31.80;36.50
70456;DHT22;57916;51.996;5.180;2022-09-06T14:48:46;31.80;36.40
70456;DHT22;57916;51.996;5.180;2022-09-06T14:51:16;31.80;35.90
70456;DHT22;57916;51.996;5.180;2022-09-06T14:53:48;31.70;35.90
70456;DHT22;57916;51.996;5.180;2022-09-06T14:56:15;31.70;36.20
70456;DHT22;57916;51.996;5.180;2022-09-06T14:58:42;31.70;36.60
70456;DHT22;57916;51.996;5.180;2022-09-06T15:01:15;31.70;37.10
70456;DHT22;57916;51.996;5.180;2022-09-06T15:03:45;31.70;36.30
70456;DHT22;57916;51.996;5.180;2022-09-06T15:06:15;31.70;36.40
70456;DHT22;57916;51.996;5.180;2022-09-06T15:08:42;31.70;37.60
70456;DHT22;57916;51.996;5.180;2022-09-06T15:11:10;31.70;38.00
70456;DHT22;57916;51.996;5.180;2022-09-06T15:13:38;31.70;37.60
70456;DHT22;57916;51.996;5.180;2022-09-06T15:16:07;31.70;37.50
70456;DHT22;57916;51.996;5.180;2022-09-06T15:18:34;31.70;36.70
70456;DHT22;57916;51.996;5.180;2022-09-06T15:21:15;31.70;37.10
70456;DHT22;57916;51.996;5.180;2022-09-06T15:23:42;31.60;36.90
70456;DHT22;57916;51.996;5.180;2022-09-06T15:26:11;31.60;36.70
70456;DHT22;57916;51.996;5.180;2022-09-06T15:28:40;31.60;36.70
70456;DHT22;57916;51.996;5.180;2022-09-06T15:31:09;31.50;36.50
70456;DHT22;57916;51.996;5.180;2022-09-06T15:33:37;31.50;36.80
70456;DHT22;57916;51.996;5.180;2022-09-06T15:36:06;31.50;36.80
70456;DHT22;57916;51.996;5.180;2022-09-06T15:38:34;31.50;36.00
70456;DHT22;57916;51.996;5.180;2022-09-06T15:41:08;31.50;34.80
70456;DHT22;57916;51.996;5.180;2022-09-06T15:43:38;31.40;34.70
70456;DHT22;57916;51.996;5.180;2022-09-06T15:46:09;31.40;34.70
70456;DHT22;57916;51.996;5.180;2022-09-06T15:48:44;31.30;35.70
70456;DHT22;57916;51.996;5.180;2022-09-06T15:51:13;31.30;36.60
70456;DHT22;57916;51.996;5.180;2022-09-06T15:53:42;31.30;38.30
70456;DHT22;57916;51.996;5.180;2022-09-06T15:56:15;31.30;36.10
70456;DHT22;57916;51.996;5.180;2022-09-06T15:58:43;31.30;35.30
70456;DHT22;57916;51.996;5.180;2022-09-06T16:01:16;31.30;34.10
70456;DHT22;57916;51.996;5.180;2022-09-06T16:03:45;31.30;33.60
70456;DHT22;57916;51.996;5.180;2022-09-06T16:06:15;31.30;34.00
70456;DHT22;57916;51.996;5.180;2022-09-06T16:08:57;31.20;33.70
70456;DHT22;57916;51.996;5.180;2022-09-06T16:11:26;31.10;34.30
70456;DHT22;57916;51.996;5.180;2022-09-06T16:13:53;31.10;34.60
70456;DHT22;57916;51.996;5.180;2022-09-06T16:16:21;31.10;35.10
70456;DHT22;57916;51.996;5.180;2022-09-06T16:18:51;31.00;35.10
70456;DHT22;57916;51.996;5.180;2022-09-06T16:21:23;31.00;35.90
70456;DHT22;57916;51.996;5.180;2022-09-06T16:23:52;30.90;36.60
70456;DHT22;57916;51.996;5.180;2022-09-06T16:26:21;30.90;37.60
70456;DHT22;57916;51.996;5.180;2022-09-06T16:28:49;30.80;37.30
70456;DHT22;57916;51.996;5.180;2022-09-06T16:31:18;30.80;37.50
70456;DHT22;57916;51.996;5.180;2022-09-06T16:33:46;30.70;38.20
70456;DHT22;57916;51.996;5.180;2022-09-06T16:36:15;30.70;38.20
70456;DHT22;57916;51.996;5.180;2022-09-06T16:38:42;30.70;38.30
70456;DHT22;57916;51.996;5.180;2022-09-06T16:43:39;30.60;39.10
70456;DHT22;57916;51.996;5.180;2022-09-06T16:46:06;30.60;39.90
70456;DHT22;57916;51.996;5.180;2022-09-06T16:48:33;30.60;42.10
70456;DHT22;57916;51.996;5.180;2022-09-06T16:51:17;30.60;42.40
70456;DHT22;57916;51.996;5.180;2022-09-06T16:53:46;30.60;43.10
70456;DHT22;57916;51.996;5.180;2022-09-06T16:56:16;30.50;43.10
70456;DHT22;57916;51.996;5.180;2022-09-06T16:58:49;30.50;42.60
70456;DHT22;57916;51.996;5.180;2022-09-06T17:01:16;30.50;42.70
70456;DHT22;57916;51.996;5.180;2022-09-06T17:03:44;30.50;42.80
70456;DHT22;57916;51.996;5.180;2022-09-06T17:06:11;30.40;42.80
70456;DHT22;57916;51.996;5.180;2022-09-06T17:08:38;30.40;43.00
70456;DHT22;57916;51.996;5.180;2022-09-06T17:11:09;30.40;43.30
70456;DHT22;57916;51.996;5.180;2022-09-06T17:13:37;30.30;43.00
70456;DHT22;57916;51.996;5.180;2022-09-06T17:16:04;30.20;43.10
70456;DHT22;57916;51.996;5.180;2022-09-06T17:18:51;30.20;42.50
70456;DHT22;57916;51.996;5.180;2022-09-06T17:21:23;30.10;43.10
70456;DHT22;57916;51.996;5.180;2022-09-06T17:23:50;30.10;43.10
70456;DHT22;57916;51.996;5.180;2022-09-06T17:26:19;30.10;42.10
70456;DHT22;57916;51.996;5.180;2022-09-06T17:28:48;30.10;42.30
70456;DHT22;57916;51.996;5.180;2022-09-06T17:31:16;30.00;42.70
70456;DHT22;57916;51.996;5.180;2022-09-06T17:33:51;30.00;43.10
70456;DHT22;57916;51.996;5.180;2022-09-06T17:36:26;29.90;43.60
70456;DHT22;57916;51.996;5.180;2022-09-06T17:39:10;29.90;42.20
70456;DHT22;57916;51.996;5.180;2022-09-06T17:41:41;29.80;42.30
70456;DHT22;57916;51.996;5.180;2022-09-06T17:44:13;29.80;44.10
70456;DHT22;57916;51.996;5.180;2022-09-06T17:46:40;29.70;44.30